Portada
METAR-TAF:

METAR-TAF

Aeropuertos :

Fuerteventura, España

Aeropuerto de Fuerteventura

latitud: 28-27N, longitud: 013-52W, altitud: 22 m

Observación

El informe se hizo hace 11 minutos, a las 18:00 UTC
Viento 17 kt del noreste
Temperatura 22°C
Humedad 69%
Presión 1019 hPa
Visibilidad 10 km o más
Cielo nuboso a una altura de 4300 ft

METAR: GCFV 271800Z 05017KT 9999 BKN043 22/16 Q1019

Hora: 18:11 (18:11 UTC)

Pronóstico

El informe se hizo hace 4 horas y 11 minutos, a las 14:00 UTC
Pronóstico válido del 27 a las 15 UTC al 28 a las 15 UTC
Viento 13 kt del noreste
Visibilidad 10 km o más
Nubes dispersas a una altura de 2500 ft
Evolucionando progresivamente
del 27 a las 18 UTC al 27 a las 20 UTC
Viento 9 kt del norte

TAF: GCFV 271400Z 2715/2815 05013KT 9999 SCT025 TX25/2814Z TN20/2807Z BECMG 2718/2720 35009KT

Observaciones y pronósticos meteorológicos de más de 4000 aeropuertos (mensajes METAR y TAF).

Los puntos amarillos y rojos representan las estaciones disponibles.

Ponga el ratón en el punto deseado para ver el nombre de la estación.

Haga clic para ver las observaciones y los pronósticos meteorológicos.

Para cambiar el mapa : haga clic en los botones verdes con una cruz de color negro para hacer un zoom, en el botón verde con un guión para alejar o en las flechas verdes para mapas adyacentes.


METAR-TAF: